Time;durP1;ratioP1;P1;durP2;ratioP2;P2;SDS_P1;SDS_P2;PMS_P1;PMS_P2;Temp;Humidity;BMP_temperature;BMP_pressure;BME280_temperature;BME280_humidity;BME280_pressure;Samples;Min_cycle;Max_cycle;Signal;HPM_P1;HPM_P2
2022/09/28 00:01:46;;;;;;;2.95;1.75;;;;;;;;;;4942560;29;20074;-90
2022/09/28 00:04:32;;;;;;;4.15;2.30;;;;;;;;;;4942727;29;20043;-90
2022/09/28 00:07:17;;;;;;;4.13;2.30;;;;;;;;;;4956476;29;20070;-90
2022/09/28 00:10:01;;;;;;;4.05;2.30;;;;;;;;;;4956266;29;20062;-90
2022/09/28 00:12:45;;;;;;;4.80;1.85;;;;;;;;;;4942352;29;20042;-88
2022/09/28 00:15:30;;;;;;;3.63;2.20;;;;;;;;;;4942455;29;20166;-89
2022/09/28 00:18:14;;;;;;;4.18;2.17;;;;;;;;;;4942094;29;20094;-89
2022/09/28 00:21:02;;;;;;;4.03;2.28;;;;;;;;;;4942038;29;20062;-89
2022/09/28 00:26:55;;;;;;;3.43;2.20;;;;;;;;;;4951371;29;20058;-89
2022/09/28 00:29:40;;;;;;;3.22;2.03;;;;;;;;;;4950810;29;20181;-88
2022/09/28 00:32:25;;;;;;;4.00;2.03;;;;;;;;;;4932028;29;20515;-88
2022/09/28 00:35:10;;;;;;;3.50;2.20;;;;;;;;;;4938788;29;20038;-88
2022/09/28 00:37:54;;;;;;;4.70;2.10;;;;;;;;;;4955536;28;20073;-88
2022/09/28 00:40:39;;;;;;;4.15;1.95;;;;;;;;;;4930345;29;20082;-88
2022/09/28 00:43:24;;;;;;;3.97;2.35;;;;;;;;;;4941091;29;20073;-88
2022/09/28 00:46:20;;;;;;;3.20;2.13;;;;;;;;;;4941825;29;20121;-88
2022/09/28 00:49:07;;;;;;;4.05;1.95;;;;;;;;;;4956382;29;20042;-89
2022/09/28 00:51:52;;;;;;;5.10;2.00;;;;;;;;;;4941797;29;20043;-89
2022/09/28 00:54:36;;;;;;;4.40;2.17;;;;;;;;;;4956609;29;20042;-89
2022/09/28 00:57:21;;;;;;;5.15;2.28;;;;;;;;;;4926534;29;20062;-89
2022/09/28 01:00:07;;;;;;;2.97;1.83;;;;;;;;;;4955989;29;20094;-89
2022/09/28 01:02:51;;;;;;;4.47;2.00;;;;;;;;;;4924211;29;20046;-89
2022/09/28 01:05:37;;;;;;;3.58;1.83;;;;;;;;;;4927953;29;20089;-89
2022/09/28 01:08:22;;;;;;;3.03;1.77;;;;;;;;;;4926897;29;20405;-88
2022/09/28 01:11:06;;;;;;;6.40;2.08;;;;;;;;;;4940873;29;20054;-88
2022/09/28 01:13:52;;;;;;;4.18;1.90;;;;;;;;;;4927709;29;20050;-89
2022/09/28 01:16:41;;;;;;;4.75;2.40;;;;;;;;;;4955407;29;20042;-88
2022/09/28 01:19:30;;;;;;;4.32;2.30;;;;;;;;;;4940610;29;20042;-88
2022/09/28 01:22:32;;;;;;;2.92;1.88;;;6.90;99.90;;;;;;4955446;29;20098;-89
2022/09/28 01:25:33;;;;;;;5.55;2.30;;;;;;;;;;4939576;29;20111;-89
2022/09/28 01:28:18;;;;;;;3.58;1.88;;;;;;;;;;4942893;29;20054;-89
2022/09/28 01:31:10;;;;;;;6.00;2.78;;;;;;;;;;4943143;29;20087;-88
2022/09/28 01:33:57;;;;;;;8.40;1.98;;;;;;;;;;4955169;29;20046;-89
2022/09/28 01:36:43;;;;;;;6.63;2.10;;;;;;;;;;4955226;29;20046;-90
2022/09/28 01:39:30;;;;;;;2.90;1.75;;;;;;;;;;4940217;29;20122;-89
2022/09/28 01:42:22;;;;;;;3.38;2.00;;;;;;;;;;4940702;29;20089;-88
2022/09/28 01:45:10;;;;;;;4.25;2.13;;;;;;;;;;4940759;29;20077;-89
2022/09/28 01:47:57;;;;;;;3.45;1.90;;;;;;;;;;4940417;28;20526;-88
2022/09/28 01:50:43;;;;;;;4.75;2.20;;;;;;;;;;4943745;28;20605;-89
2022/09/28 01:53:31;;;;;;;4.03;2.42;;;;;;;;;;4954587;29;20098;-89
2022/09/28 01:56:27;;;;;;;5.38;1.90;;;;;;;;;;4940771;29;20042;-90
2022/09/28 01:59:14;;;;;;;4.13;2.20;;;;;;;;;;4940704;29;20388;-90
2022/09/28 02:02:03;;;;;;;4.95;2.78;;;;;;;;;;4940366;29;20034;-89
2022/09/28 02:04:53;;;;;;;6.03;2.47;;;;;;;;;;4940384;29;20553;-88
2022/09/28 02:07:41;;;;;;;8.50;2.90;;;;;;;;;;4929730;29;20094;-89
2022/09/28 02:10:30;;;;;;;6.93;3.35;;;;;;;;;;4939606;29;20094;-89
2022/09/28 02:13:19;;;;;;;11.15;3.90;;;;;;;;;;4955126;29;20118;-89
2022/09/28 02:16:07;;;;;;;7.15;3.35;;;;;;;;;;4954602;29;20042;-89
2022/09/28 02:18:51;;;;;;;9.90;2.63;;;;;;;;;;4954590;29;20046;-88
2022/09/28 02:21:41;;;;;;;39.20;4.63;;;;;;;;;;4954464;29;20094;-89
2022/09/28 02:24:32;;;;;;;6.93;3.10;;;;;;;;;;4939692;29;20075;-90
2022/09/28 02:27:22;;;;;;;17.88;3.92;;;;;;;;;;4954490;29;20403;-88
2022/09/28 02:30:07;;;;;;;9.90;3.33;;;;;;;;;;4947637;29;20082;-88
2022/09/28 02:32:53;;;;;;;12.52;3.30;;;;;;;;;;4917075;29;20046;-89
2022/09/28 02:35:39;;;;;;;6.57;3.22;;;;;;;;;;4939606;29;20142;-88
2022/09/28 02:38:24;;;;;;;16.92;3.67;;;;;;;;;;4939557;29;20046;-89
2022/09/28 02:41:35;;;;;;;10.20;3.63;;;;;;;;;;4939781;29;20130;-89
2022/09/28 02:44:59;;;;;;;11.00;3.40;;;7.50;99.90;;;;;;4946961;29;20087;-90
2022/09/28 02:47:51;;;;;;;19.88;3.17;;;;;;;;;;4946332;29;20408;-90
2022/09/28 02:50:45;;;;;;;7.72;3.17;;;;;;;;;;4953947;29;20097;-90
2022/09/28 02:53:49;;;;;;;7.13;3.70;;;;;;;;;;4939233;29;20042;-89
2022/09/28 02:57:00;;;;;;;6.07;3.55;;;7.40;99.90;;;;;;4952937;29;20042;-89
2022/09/28 02:59:49;;;;;;;7.57;3.97;;;;;;;;;;4921163;29;20050;-90
2022/09/28 03:02:33;;;;;;;10.40;2.83;;;;;;;;;;4928220;29;20451;-89
2022/09/28 03:05:44;;;;;;;10.65;3.13;;;;;;;;;;4939606;29;20431;-89
2022/09/28 03:08:31;;;;;;;20.88;3.67;;;;;;;;;;4953704;29;20087;-88
2022/09/28 03:11:20;;;;;;;19.92;3.53;;;;;;;;;;4940007;29;20085;-89
2022/09/28 03:14:04;;;;;;;12.80;3.75;;;;;;;;;;4938716;29;20039;-88
2022/09/28 03:16:49;;;;;;;14.63;3.42;;;;;;;;;;4953578;29;20098;-89
2022/09/28 03:19:35;;;;;;;10.27;3.10;;;;;;;;;;4953713;29;20043;-91
2022/09/28 03:22:20;;;;;;;12.70;3.45;;;;;;;;;;4939673;29;20094;-90
2022/09/28 03:25:05;;;;;;;27.42;3.60;;;;;;;;;;4943108;29;20052;-89
2022/09/28 03:27:50;;;;;;;30.05;3.38;;;;;;;;;;4932993;29;20106;-89
2022/09/28 03:30:34;;;;;;;16.23;3.83;;;;;;;;;;4942663;29;20038;-89
2022/09/28 03:33:19;;;;;;;17.75;4.07;;;;;;;;;;4939225;29;20470;-91
2022/09/28 03:36:04;;;;;;;9.73;2.97;;;;;;;;;;4939341;29;20045;-90
2022/09/28 03:38:52;;;;;;;15.70;3.55;;;;;;;;;;4939018;29;20046;-90
2022/09/28 03:41:37;;;;;;;27.15;3.08;;;;;;;;;;4937724;29;20081;-91
2022/09/28 03:44:24;;;;;;;21.00;2.78;;;;;;;;;;4926937;29;20043;-93
2022/09/28 03:47:09;;;;;;;32.83;3.42;;;;;;;;;;4928207;29;20502;-92
2022/09/28 03:49:54;;;;;;;9.35;2.83;;;;;;;;;;4953319;29;20156;-92
2022/09/28 03:52:41;;;;;;;5.32;3.00;;;;;;;;;;4938869;29;20047;-93
2022/09/28 03:55:26;;;;;;;15.25;3.50;;;;;;;;;;4953691;29;20407;-92
2022/09/28 03:58:10;;;;;;;7.22;2.92;;;;;;;;;;4939300;29;20522;-92
2022/09/28 04:00:55;;;;;;;19.35;3.03;;;;;;;;;;4922476;29;20916;-92
2022/09/28 04:03:39;;;;;;;34.17;3.45;;;;;;;;;;4950655;29;20042;-93
2022/09/28 04:06:24;;;;;;;12.18;3.00;;;;;;;;;;4953867;29;20038;-92
2022/09/28 04:09:09;;;;;;;17.15;2.55;;;;;;;;;;4953740;29;20045;-92
2022/09/28 04:11:54;;;;;;;11.48;2.60;;;;;;;;;;4938678;29;20106;-93
2022/09/28 04:14:39;;;;;;;24.33;2.90;;;;;;;;;;4927027;29;20490;-91
2022/09/28 04:17:23;;;;;;;15.30;2.83;;;;;;;;;;4941179;29;20102;-92
2022/09/28 04:20:08;;;;;;;21.02;2.83;;;;;;;;;;4956833;29;20042;-92
2022/09/28 04:22:54;;;;;;;13.48;3.10;;;;;;;;;;4924587;29;20045;-93
2022/09/28 04:25:38;;;;;;;9.68;3.40;;;;;;;;;;4942569;29;20086;-90
2022/09/28 04:31:28;;;;;;;6.15;3.15;;;;;;;;;;4943530;29;20088;-91
2022/09/28 04:34:17;;;;;;;13.13;3.08;;;;;;;;;;4941985;29;20054;-93
2022/09/28 04:37:02;;;;;;;7.85;2.50;;;;;;;;;;4950481;29;20033;-92
2022/09/28 04:39:46;;;;;;;15.70;2.30;;;;;;;;;;4956113;29;20046;-92
2022/09/28 04:42:31;;;;;;;7.72;2.35;;;;;;;;;;4942748;29;20654;-91
2022/09/28 04:45:15;;;;;;;4.95;2.55;;;;;;;;;;4956540;29;20126;-92
2022/09/28 04:48:00;;;;;;;9.02;2.75;;;;;;;;;;4941087;29;20500;-91
2022/09/28 04:50:54;;;;;;;5.10;2.45;;;;;;;;;;4955579;29;20054;-91
2022/09/28 04:53:38;;;;;;;;;;;7.00;99.90;;;;;;4942235;29;20050;-92
2022/09/28 04:56:23;;;;;;;5.20;2.38;;;;;;;;;;4942016;29;19921;-92
2022/09/28 04:59:08;;;;;;;10.60;2.25;;;;;;;;;;4955111;29;20046;-92
2022/09/28 05:01:53;;;;;;;5.25;2.65;;;;;;;;;;4934070;29;20118;-92
2022/09/28 05:04:37;;;;;;;5.28;3.22;;;;;;;;;;4932603;29;20508;-92
2022/09/28 05:07:26;;;;;;;10.50;3.10;;;;;;;;;;4946098;29;20078;-96
2022/09/28 05:10:12;;;;;;;10.45;2.25;;;;;;;;;;4970045;23;20484;-92
2022/09/28 05:12:56;;;;;;;6.93;2.95;;;;;;;;;;4924823;29;20062;-93
2022/09/28 05:15:43;;;;;;;7.30;2.83;;;;;;;;;;4935534;29;20043;-93
2022/09/28 05:18:28;;;;;;;21.65;3.22;;;;;;;;;;4930904;29;20051;-93
2022/09/28 05:21:14;;;;;;;7.32;3.22;;;;;;;;;;4939409;29;20083;-91
2022/09/28 05:23:59;;;;;;;9.80;3.00;;;;;;;;;;4932982;29;20396;-92
2022/09/28 05:26:43;;;;;;;10.13;2.80;;;;;;;;;;4936686;29;20042;-93
2022/09/28 05:29:28;;;;;;;5.82;2.53;;;;;;;;;;4911453;29;20054;-95
2022/09/28 05:32:12;;;;;;;10.00;2.97;;;;;;;;;;4923180;29;20047;-94
2022/09/28 05:35:06;;;;;;;9.95;3.13;;;;;;;;;;4913103;29;20396;-90
2022/09/28 05:37:51;;;;;;;11.13;3.55;;;;;;;;;;4918404;29;20043;-88
2022/09/28 05:40:36;;;;;;;12.85;3.33;;;;;;;;;;4922034;29;20043;-91
2022/09/28 05:43:20;;;;;;;5.43;2.70;;;;;;;;;;4921747;29;20038;-91
2022/09/28 05:46:05;;;;;;;10.25;3.55;;;;;;;;;;4935262;29;20483;-89
2022/09/28 05:48:51;;;;;;;9.13;3.72;;;;;;;;;;4921854;29;20050;-91
2022/09/28 05:51:36;;;;;;;7.55;3.95;;;;;;;;;;4931967;29;20047;-87
2022/09/28 05:54:20;;;;;;;5.75;2.85;;;;;;;;;;4921388;29;20499;-89
2022/09/28 05:57:06;;;;;;;6.88;3.58;;;;;;;;;;4920387;29;20165;-93
2022/09/28 05:59:53;;;;;;;8.07;3.03;;;;;;;;;;4929689;29;20445;-92
2022/09/28 06:02:38;;;;;;;7.25;3.60;;;;;;;;;;4904041;29;20047;-90
2022/09/28 06:05:24;;;;;;;7.22;3.55;;;;;;;;;;4935836;29;20087;-90
2022/09/28 06:08:11;;;;;;;8.40;3.50;;;;;;;;;;4920740;29;20047;-90
2022/09/28 06:11:00;;;;;;;8.07;3.10;;;;;;;;;;4935171;29;20059;-92
2022/09/28 06:13:44;;;;;;;7.82;3.28;;;;;;;;;;4932140;29;20484;-93
2022/09/28 06:16:33;;;;;;;7.03;3.17;;;;;;;;;;4921425;29;20404;-92
2022/09/28 06:19:18;;;;;;;6.88;3.10;;;;;;;;;;4920956;29;20055;-92
2022/09/28 06:22:07;;;;;;;5.97;3.08;;;;;;;;;;4902108;29;20123;-92
2022/09/28 06:24:54;;;;;;;7.10;3.35;;;;;;;;;;4921610;29;20230;-93
2022/09/28 06:27:41;;;;;;;11.85;3.10;;;;;;;;;;4921068;29;20047;-91
2022/09/28 06:30:26;;;;;;;8.95;3.63;;;;;;;;;;4935531;29;20043;-91
2022/09/28 06:33:12;;;;;;;6.97;3.20;;;;;;;;;;4918751;29;20043;-91
2022/09/28 06:35:58;;;;;;;5.95;3.55;;;;;;;;;;4920465;29;20066;-92
2022/09/28 06:38:44;;;;;;;6.40;3.00;;;;;;;;;;4924349;29;20050;-90
2022/09/28 06:41:38;;;;;;;;;;;;;;;;;;;;;
2022/09/28 06:44:24;;;;;;;7.35;3.30;;;;;;;;;;4949012;29;20050;-91
2022/09/28 06:47:08;;;;;;;7.65;2.97;;;;;;;;;;4927445;29;20052;-91
2022/09/28 06:49:54;;;;;;;11.05;3.60;;;;;;;;;;4921003;29;20046;-90
2022/09/28 06:52:38;;;;;;;6.65;2.83;;;;;;;;;;4920692;29;20451;-91
2022/09/28 06:55:23;;;;;;;7.38;3.83;;;;;;;;;;4919878;29;20086;-91
2022/09/28 06:58:10;;;;;;;15.27;2.90;;;;;;;;;;4920308;29;20042;-88
2022/09/28 07:00:58;;;;;;;12.60;3.05;;;;;;;;;;4934194;29;20034;-91
2022/09/28 07:03:42;;;;;;;11.65;3.35;;;;;;;;;;4931724;29;20082;-89
2022/09/28 07:06:30;;;;;;;7.65;3.90;;;;;;;;;;4907861;29;20084;-90
2022/09/28 07:09:14;;;;;;;15.07;3.35;;;;;;;;;;4922178;29;20067;-90
2022/09/28 07:11:59;;;;;;;15.05;3.72;;;;;;;;;;4907233;29;20047;-90
2022/09/28 07:14:57;;;;;;;7.25;3.65;;;;;;;;;;4934400;29;20050;-90
2022/09/28 07:17:42;;;;;;;8.52;4.30;;;;;;;;;;4895797;29;20038;-90
2022/09/28 07:20:27;;;;;;;7.43;3.35;;;;;;;;;;4908186;29;20082;-90
2022/09/28 07:23:14;;;;;;;6.30;3.28;;;;;;;;;;4919667;29;20849;-90
2022/09/28 07:26:02;;;;;;;13.20;3.35;;;;;;;;;;4920260;29;20066;-90
2022/09/28 07:28:50;;;;;;;10.48;3.95;;;;;;;;;;4934486;29;20047;-90
2022/09/28 07:31:37;;;;;;;5.82;3.13;;;;;;;;;;4919630;29;20411;-89
2022/09/28 07:34:23;;;;;;;8.35;3.63;;;;;;;;;;4916142;29;20043;-92
2022/09/28 07:37:10;;;;;;;14.63;3.80;;;;;;;;;;4920602;29;20035;-90
2022/09/28 07:43:05;;;;;;;14.47;3.23;;;;;;;;;;4935185;29;20556;-94
2022/09/28 07:45:51;;;;;;;8.48;3.72;;;;;;;;;;4925645;29;20495;-91
2022/09/28 07:48:36;;;;;;;5.97;3.00;;;;;;;;;;4937275;29;20089;-91
2022/09/28 07:51:21;;;;;;;5.38;2.85;;;;;;;;;;4910169;29;20485;-91
2022/09/28 07:54:05;;;;;;;11.27;3.20;;;;;;;;;;4938036;29;20075;-91
2022/09/28 07:56:53;;;;;;;5.85;3.38;;;;;;;;;;4910171;29;20555;-91
2022/09/28 07:59:39;;;;;;;6.95;3.75;;;;;;;;;;4923103;29;20062;-91
2022/09/28 08:02:24;;;;;;;6.30;3.15;;;;;;;;;;4936455;29;20042;-89
2022/09/28 08:05:18;;;;;;;6.80;3.22;;;;;;;;;;4925809;29;20055;-93
2022/09/28 08:08:03;;;;;;;8.35;4.30;;;;;;;;;;4932318;29;20038;-90
2022/09/28 08:10:49;;;;;;;5.60;2.92;;;;;;;;;;4920610;29;20058;-90
2022/09/28 08:13:34;;;;;;;6.60;3.45;;;;;;;;;;4921995;29;20047;-91
2022/09/28 08:16:19;;;;;;;6.13;2.85;;;;;;;;;;4913633;29;20082;-91
2022/09/28 08:19:03;;;;;;;8.02;3.80;;;;;;;;;;4923300;29;20070;-92
2022/09/28 08:21:48;;;;;;;7.50;2.97;;;;;;;;;;4910487;29;20119;-92
2022/09/28 08:24:32;;;;;;;5.97;2.50;;;;;;;;;;4937516;29;20051;-92
2022/09/28 08:27:17;;;;;;;7.57;3.40;;;;;;;;;;4922835;29;20067;-90
2022/09/28 08:30:04;;;;;;;6.30;3.50;;;;;;;;;;4914208;29;20043;-92
2022/09/28 08:32:49;;;;;;;8.50;4.05;;;;;;;;;;4923871;29;20051;-89
2022/09/28 08:35:34;;;;;;;7.93;4.05;;;;;;;;;;4923042;29;20043;-90
2022/09/28 08:38:18;;;;;;;12.20;4.28;;;;;;;;;;4936121;29;20042;-90
2022/09/28 08:41:18;;;;;;;6.75;3.22;;;;;;;;;;4910058;29;20047;-91
2022/09/28 08:44:32;;;;;;;6.30;3.25;;;;;;;;;;4936563;29;20118;-90
2022/09/28 08:50:50;;;;;;;5.85;3.25;;;;;;;;;;4926895;29;20506;-90
2022/09/28 08:53:35;;;;;;;5.28;2.78;;;;;;;;;;4936833;29;20079;-89
2022/09/28 08:56:40;;;;;;;13.07;3.28;;;;;;;;;;4937089;29;20047;-91
2022/09/28 08:59:28;;;;;;;6.97;3.38;;;;;;;;;;4926095;29;20091;-89
2022/09/28 09:02:32;;;;;;;6.15;3.22;;;;;;;;;;4936135;29;20527;-90
2022/09/28 09:05:36;;;;;;;5.68;2.78;;;;;;;;;;4922660;29;20050;-89
2022/09/28 09:08:47;;;;;;;6.30;3.03;;;;;;;;;;4936851;29;20054;-91
2022/09/28 09:11:42;;;;;;;5.55;2.83;;;;;;;;;;4928145;29;20046;-90
2022/09/28 09:14:34;;;;;;;6.97;2.80;;;;;;;;;;4936752;29;20038;-90
2022/09/28 09:17:25;;;;;;;5.25;2.30;;;;;;;;;;4937279;29;20483;-89
2022/09/28 09:20:25;;;;;;;7.60;3.10;;;;;;;;;;4910184;29;20068;-89
2022/09/28 09:23:20;;;;;;;5.45;3.33;;;;;;;;;;4926169;29;20058;-89
2022/09/28 09:26:12;;;;;;;4.47;2.33;;;;;;;;;;4936749;29;20038;-90
2022/09/28 09:29:09;;;;;;;4.45;2.50;;;;;;;;;;4936534;29;20051;-90
2022/09/28 09:31:58;;;;;;;5.55;2.75;;;;;;;;;;4911125;29;20054;-90
2022/09/28 09:34:49;;;;;;;6.25;2.88;;;;;;;;;;4921920;29;20276;-91
2022/09/28 09:38:05;;;;;;;5.20;2.17;;;13.80;99.90;;;;;;4921997;29;20049;-90
2022/09/28 09:40:57;;;;;;;4.07;2.05;;;;;;;;;;4911327;29;20059;-90
2022/09/28 09:43:52;;;;;;;6.32;2.03;;;;;;;;;;4921844;29;20111;-90
2022/09/28 09:46:40;;;;;;;4.30;2.10;;;;;;;;;;4935964;29;20184;-91
2022/09/28 09:49:29;;;;;;;3.00;1.67;;;;;;;;;;4921991;29;20039;-90
2022/09/28 09:52:20;;;;;;;2.90;1.50;;;;;;;;;;4936428;29;20035;-90
2022/09/28 09:55:14;;;;;;;4.65;2.42;;;;;;;;;;4921794;29;20122;-90
2022/09/28 09:58:37;;;;;;;4.85;2.30;;;14.40;99.90;;;;;;4921985;29;20062;-90
2022/09/28 10:01:32;;;;;;;4.05;2.10;;;;;;;;;;4928968;29;20120;-90
2022/09/28 10:04:45;;;;;;;3.30;1.77;;;;;;;;;;4921735;29;20034;-92
2022/09/28 10:07:42;;;;;;;3.43;1.47;;;;;;;;;;4921375;29;20054;-91
2022/09/28 10:10:35;;;;;;;2.47;1.17;;;;;;;;;;4921507;29;20110;-92
2022/09/28 10:13:22;;;;;;;2.63;1.03;;;;;;;;;;4921773;29;20090;-93
2022/09/28 10:16:12;;;;;;;1.80;1.08;;;;;;;;;;4921677;29;20031;-91
2022/09/28 10:18:57;;;;;;;1.40;1.00;;;;;;;;;;4922162;29;20095;-91
2022/09/28 10:21:45;;;;;;;1.48;1.00;;;;;;;;;;4908059;29;20449;-91
2022/09/28 10:24:40;;;;;;;1.35;0.80;;;;;;;;;;4934770;29;20034;-94
2022/09/28 10:27:26;;;;;;;1.40;0.88;;;;;;;;;;4921310;29;20055;-92
2022/09/28 10:30:18;;;;;;;1.92;1.13;;;;;;;;;;4921400;29;20043;-91
2022/09/28 10:33:03;;;;;;;1.25;0.70;;;;;;;;;;4921250;29;20082;-92
2022/09/28 10:35:50;;;;;;;1.17;0.70;;;;;;;;;;4920977;29;20038;-92
2022/09/28 10:38:37;;;;;;;3.05;1.20;;;;;;;;;;4921088;29;20086;-91
2022/09/28 10:41:25;;;;;;;1.27;0.85;;;;;;;;;;4908456;29;20412;-93
2022/09/28 10:44:16;;;;;;;2.30;1.10;;;;;;;;;;4935757;29;20039;-93
2022/09/28 10:47:02;;;;;;;1.25;0.90;;;;;;;;;;4921227;29;20483;-91
2022/09/28 10:49:49;;;;;;;2.10;1.00;;;;;;;;;;4920706;29;20098;-91
2022/09/28 10:52:40;;;;;;;0.82;0.65;;;;;;;;;;4920977;29;20445;-92
2022/09/28 10:55:31;;;;;;;3.05;1.30;;;;;;;;;;4935225;29;20046;-91
2022/09/28 10:58:36;;;;;;;1.90;0.90;;;;;;;;;;4921046;29;20550;-91
2022/09/28 11:01:22;;;;;;;1.73;1.00;;;;;;;;;;4921024;29;20079;-93
2022/09/28 11:04:19;;;;;;;1.27;0.90;;;;;;;;;;4921011;29;20082;-92
2022/09/28 11:07:04;;;;;;;1.48;0.85;;;;;;;;;;4920922;29;20047;-91
2022/09/28 11:09:59;;;;;;;2.10;1.00;;;;;;;;;;4920578;29;20063;-91
2022/09/28 11:12:44;;;;;;;1.23;0.85;;;;;;;;;;4920631;29;20091;-90
2022/09/28 11:15:34;;;;;;;0.65;0.60;;;;;;;;;;4935218;29;20111;-90
2022/09/28 11:18:32;;;;;;;1.15;0.75;;;;;;;;;;4908232;29;20098;-92
2022/09/28 11:21:30;;;;;;;1.02;0.70;;;;;;;;;;4914163;29;20047;-94
2022/09/28 11:24:23;;;;;;;1.27;0.70;;;;;;;;;;4940212;29;20042;-92
2022/09/28 11:27:19;;;;;;;1.52;0.70;;;;;;;;;;4924584;29;20039;-90
2022/09/28 11:30:17;;;;;;;;;;;;;;;;;;;;;
2022/09/28 11:33:07;;;;;;;0.80;0.60;;;;;;;;;;4935710;29;20551;-90
2022/09/28 11:36:06;;;;;;;0.63;0.60;;;;;;;;;;4923374;29;20034;-90
2022/09/28 11:38:56;;;;;;;1.15;0.75;;;;;;;;;;4935225;29;20050;-91
2022/09/28 11:41:49;;;;;;;1.75;0.50;;;;;;;;;;4937511;29;20039;-93
2022/09/28 11:44:36;;;;;;;0.65;0.60;;;;;;;;;;4923696;29;20098;-90
2022/09/28 11:47:26;;;;;;;1.27;0.57;;;;;;;;;;4924233;29;20138;-90
2022/09/28 11:50:13;;;;;;;0.93;0.65;;;;;;;;;;4922877;29;20090;-91
2022/09/28 11:53:34;;;;;;;0.40;0.40;;;15.10;99.90;;;;;;4922350;29;20043;-90
2022/09/28 11:56:31;;;;;;;0.60;0.45;;;;;;;;;;4931433;29;20039;-90
2022/09/28 11:59:18;;;;;;;0.60;0.60;;;;;;;;;;4930827;29;20572;-92
2022/09/28 12:02:17;;;;;;;0.75;0.60;;;;;;;;;;4938249;29;20120;-91
2022/09/28 12:05:29;;;;;;;0.45;0.45;;;16.30;99.90;;;;;;4923728;29;20039;-92
2022/09/28 12:08:20;;;;;;;0.50;0.50;;;;;;;;;;4917514;29;20050;-90
2022/09/28 12:11:06;;;;;;;0.52;0.40;;;;;;;;;;4937827;29;20061;-91
2022/09/28 12:13:56;;;;;;;0.45;0.40;;;;;;;;;;4924235;29;20039;-89
2022/09/28 12:16:45;;;;;;;0.40;0.40;;;;;;;;;;4904472;29;20039;-90
2022/09/28 12:19:30;;;;;;;0.50;0.50;;;;;;;;;;4912316;29;20507;-91
2022/09/28 12:22:29;;;;;;;0.45;0.45;;;;;;;;;;4923838;29;20066;-90
2022/09/28 12:25:18;;;;;;;1.20;0.60;;;;;;;;;;4917319;29;20057;-90
2022/09/28 12:28:06;;;;;;;0.60;0.52;;;;;;;;;;4919495;29;20046;-90
2022/09/28 12:30:54;;;;;;;2.22;0.50;;;;;;;;;;4934422;29;20042;-89
2022/09/28 12:33:57;;;;;;;;;;;;;;;;;;;;;
2022/09/28 12:36:42;;;;;;;1.27;0.45;;;;;;;;;;4924792;29;20395;-91
2022/09/28 12:39:42;;;;;;;0.50;0.50;;;;;;;;;;4923700;29;20401;-90
2022/09/28 12:42:51;;;;;;;0.35;0.35;;;;;;;;;;4928517;29;20099;-90
2022/09/28 12:45:39;;;;;;;1.10;0.50;;;;;;;;;;4913094;29;20083;-88
2022/09/28 12:48:44;;;;;;;0.80;0.43;;;;;;;;;;4923665;29;20055;-90
2022/09/28 12:51:43;;;;;;;0.50;0.50;;;;;;;;;;4923308;29;20099;-90
2022/09/28 12:54:35;;;;;;;0.50;0.50;;;;;;;;;;4923722;29;20047;-90
2022/09/28 12:58:05;;;;;;;0.52;0.52;;;14.50;99.90;;;;;;4923490;29;20074;-89
2022/09/28 13:01:03;;;;;;;0.68;0.60;;;;;;;;;;4908908;29;20050;-90
2022/09/28 13:03:50;;;;;;;0.40;0.40;;;;;;;;;;4923433;29;20090;-89
2022/09/28 13:06:56;;;;;;;0.60;0.43;;;;;;;;;;4923472;29;20078;-88
2022/09/28 13:09:49;;;;;;;0.90;0.50;;;;;;;;;;4923565;29;20066;-88
2022/09/28 13:12:36;;;;;;;0.43;0.43;;;;;;;;;;4923941;29;20043;-90
2022/09/28 13:15:22;;;;;;;0.50;0.50;;;;;;;;;;4922032;29;20051;-90
2022/09/28 13:18:21;;;;;;;7.85;0.65;;;;;;;;;;4913720;29;20042;-89
2022/09/28 13:21:13;;;;;;;0.50;0.50;;;;;;;;;;4910558;29;20071;-90
2022/09/28 13:24:01;;;;;;;0.43;0.43;;;;;;;;;;4922712;29;20090;-89
2022/09/28 13:26:49;;;;;;;0.40;0.40;;;;;;;;;;4926493;29;20084;-89
2022/09/28 13:29:35;;;;;;;0.50;0.50;;;;;;;;;;4914316;29;20066;-88
2022/09/28 13:32:25;;;;;;;0.47;0.47;;;;;;;;;;4917056;29;20127;-89
2022/09/28 13:35:20;;;;;;;0.60;0.60;;;;;;;;;;4897950;29;20457;-88
2022/09/28 13:38:24;;;;;;;0.63;0.50;;;;;;;;;;4925229;29;20516;-87
2022/09/28 13:41:10;;;;;;;1.67;0.80;;;;;;;;;;4922226;29;20042;-88
2022/09/28 13:44:05;;;;;;;0.88;0.50;;;;;;;;;;4935535;29;20054;-89
2022/09/28 13:47:15;;;;;;;1.17;0.63;;;;;;;;;;4935507;29;20093;-89
2022/09/28 13:50:21;;;;;;;0.45;0.45;;;14.10;99.90;;;;;;4921720;29;20050;-88
2022/09/28 13:53:34;;;;;;;;;;;;;;;;;;;;;
2022/09/28 13:56:23;;;;;;;1.40;0.47;;;;;;;;;;4936175;29;20118;-88
2022/09/28 13:59:08;;;;;;;1.10;0.63;;;;;;;;;;4936052;29;20062;-91
2022/09/28 14:01:56;;;;;;;1.20;0.60;;;;;;;;;;4921908;29;20082;-86
2022/09/28 14:04:56;;;;;;;0.60;0.60;;;;;;;;;;4922284;29;20476;-88
2022/09/28 14:07:46;;;;;;;0.68;0.52;;;;;;;;;;4909002;29;20062;-89
2022/09/28 14:10:51;;;;;;;0.50;0.50;;;;;;;;;;4933127;29;20504;-88
2022/09/28 14:13:39;;;;;;;1.02;0.60;;;;;;;;;;4921801;29;20167;-88
2022/09/28 14:16:35;;;;;;;0.43;0.43;;;;;;;;;;4921417;29;20076;-87
2022/09/28 14:19:59;;;;;;;;;;;;;;;;;;;;;
2022/09/28 14:23:02;;;;;;;2.33;1.40;;;;;;;;;;4917352;29;20043;-88
2022/09/28 14:26:21;;;;;;;2.45;0.88;;;;;;;;;;4932280;29;20055;-88
2022/09/28 14:29:08;;;;;;;0.30;0.30;;;;;;;;;;4920850;29;20071;-88
2022/09/28 14:32:13;;;;;;;0.75;0.55;;;;;;;;;;4909736;29;20086;-87
2022/09/28 14:35:03;;;;;;;0.40;0.40;;;;;;;;;;4899703;29;20095;-88
2022/09/28 14:41:10;;;;;;;3.40;0.50;;;;;;;;;;4935941;29;20042;-88
2022/09/28 14:44:02;;;;;;;0.70;0.50;;;;;;;;;;4921340;29;20493;-86
2022/09/28 14:47:07;;;;;;;0.50;0.50;;;;;;;;;;4921249;29;20050;-88
2022/09/28 14:49:59;;;;;;;0.68;0.60;;;;;;;;;;4921217;29;20047;-87
2022/09/28 14:52:53;;;;;;;1.50;0.60;;;;;;;;;;4921157;29;20500;-89
2022/09/28 14:55:48;;;;;;;0.40;0.40;;;;;;;;;;4935321;29;20083;-87
2022/09/28 14:58:36;;;;;;;0.90;0.60;;;;;;;;;;4907808;29;20094;-87
2022/09/28 15:01:23;;;;;;;0.43;0.40;;;;;;;;;;4935188;29;20046;-88
2022/09/28 15:04:12;;;;;;;0.65;0.40;;;;;;;;;;4920964;29;20600;-87
2022/09/28 15:07:05;;;;;;;0.50;0.50;;;;;;;;;;4920861;29;20043;-89
2022/09/28 15:09:50;;;;;;;0.80;0.52;;;;;;;;;;4907968;29;20081;-88
2022/09/28 15:12:37;;;;;;;0.60;0.60;;;;;;;;;;4928855;29;20124;-88
2022/09/28 15:15:40;;;;;;;0.60;0.60;;;;;;;;;;4929821;29;20043;-90
2022/09/28 15:18:34;;;;;;;0.60;0.52;;;;;;;;;;4914312;29;20054;-89
2022/09/28 15:21:19;;;;;;;3.22;1.25;;;;;;;;;;4915131;29;20083;-88
2022/09/28 15:24:23;;;;;;;1.55;0.85;;;;;;;;;;4901686;29;20042;-88
2022/09/28 15:27:25;;;;;;;;;;;;;;;;;;;;;
2022/09/28 15:30:16;;;;;;;1.27;0.82;;;;;;;;;;4933150;29;20042;-87
2022/09/28 15:36:07;;;;;;;0.73;0.63;;;;;;;;;;4919297;29;20087;-87
2022/09/28 15:39:05;;;;;;;1.20;0.80;;;;;;;;;;4907999;29;20700;-88
2022/09/28 15:41:50;;;;;;;1.38;0.68;;;;;;;;;;4931823;29;20062;-88
2022/09/28 15:44:46;;;;;;;;;;;;;;;;;;;;;
2022/09/28 15:47:38;;;;;;;0.60;0.60;;;;;;;;;;4934258;29;20122;-89
2022/09/28 15:50:28;;;;;;;1.63;0.70;;;;;;;;;;4919757;29;20046;-90
2022/09/28 15:53:17;;;;;;;1.58;1.05;;;;;;;;;;4920271;29;20102;-89
2022/09/28 15:56:08;;;;;;;1.52;0.57;;;;;;;;;;4920167;29;20055;-88
2022/09/28 15:59:10;;;;;;;0.60;0.60;;;;;;;;;;4919240;29;20050;-88
2022/09/28 16:02:03;;;;;;;0.77;0.60;;;;;;;;;;4933096;29;20465;-88
2022/09/28 16:04:59;;;;;;;0.98;0.70;;;;;;;;;;4919918;29;20162;-88
2022/09/28 16:07:52;;;;;;;0.90;0.70;;;;;;;;;;4918329;29;20067;-88
2022/09/28 16:10:39;;;;;;;1.83;0.75;;;;;;;;;;4921772;29;20057;-88
2022/09/28 16:13:24;;;;;;;5.28;1.30;;;;;;;;;;4937156;29;20515;-88
2022/09/28 16:16:16;;;;;;;2.40;1.00;;;;;;;;;;4923223;29;20473;-88
2022/09/28 16:19:01;;;;;;;5.10;1.08;;;;;;;;;;4922570;29;20098;-88
2022/09/28 16:21:50;;;;;;;1.83;1.10;;;;;;;;;;4928720;29;20405;-88
2022/09/28 16:24:41;;;;;;;1.40;0.90;;;;;;;;;;4924725;29;20035;-87
2022/09/28 16:27:32;;;;;;;1.30;0.70;;;;;;;;;;4922113;29;20183;-88
2022/09/28 16:30:20;;;;;;;2.30;0.70;;;;;;;;;;4922777;29;20039;-88
2022/09/28 16:33:05;;;;;;;0.88;0.63;;;;;;;;;;4922525;29;20087;-88
2022/09/28 16:35:50;;;;;;;4.35;0.80;;;;;;;;;;4922957;29;20581;-87
2022/09/28 16:38:37;;;;;;;1.27;0.80;;;;;;;;;;4920684;29;20546;-88
2022/09/28 16:41:24;;;;;;;0.82;0.70;;;;;;;;;;4922509;29;20047;-93
2022/09/28 16:44:20;;;;;;;0.77;0.70;;;;;;;;;;4921795;29;20129;-88
2022/09/28 16:47:12;;;;;;;1.48;0.80;;;;;;;;;;4922204;29;20038;-87
2022/09/28 16:49:59;;;;;;;1.20;0.60;;;;;;;;;;4909769;29;20127;-88
2022/09/28 16:55:48;;;;;;;1.45;0.90;;;;;;;;;;4926092;29;20043;-88
2022/09/28 16:58:34;;;;;;;1.42;0.90;;;;;;;;;;4925639;29;20123;-87
2022/09/28 17:01:25;;;;;;;2.38;1.30;;;;;;;;;;4922209;29;20112;-87
2022/09/28 17:04:12;;;;;;;3.08;1.05;;;;;;;;;;4920182;29;20221;-87
2022/09/28 17:06:57;;;;;;;2.58;1.40;;;;;;;;;;4909501;29;20047;-87
2022/09/28 17:09:43;;;;;;;2.15;1.52;;;;;;;;;;4912974;29;20059;-88
2022/09/28 17:12:31;;;;;;;2.40;1.52;;;;;;;;;;4935759;29;20062;-88
2022/09/28 17:15:18;;;;;;;3.40;1.65;;;;;;;;;;4921468;29;20445;-88
2022/09/28 17:18:05;;;;;;;1.83;1.20;;;;;;;;;;4919865;29;20042;-88
2022/09/28 17:20:50;;;;;;;2.65;1.30;;;;;;;;;;4933883;29;20078;-87
2022/09/28 17:23:35;;;;;;;3.38;1.55;;;;;;;;;;4936009;29;20064;-87